Terminal Aerodrome Forecast
Issued by NWS

Home | Current Version | Previous Version | Text Only | Print | Product List | Glossary On
Versions: 1 2 3 4 5 6 7 8 9 10 11 12 13 14 15 16 17 18 19 20 21
000
FTUS43 KGRB 251134
TAFRHI
TAF
KRHI 251134Z 2512/2612 03003KT P6SM SCT045
     FM251600 07006KT P6SM BKN045
     FM252000 11005KT P6SM SCT090
     FM260600 VRB03KT P6SM SCT035 OVC070 PROB30 2609/2612 5SM -RA BR
      BKN035=

USA.gov is the U.S. government's official web portal to all federal, state and local government web resources and services.